sensor_id;sensor_type;location;lat;lon;timestamp;P1;durP1;ratioP1;P2;durP2;ratioP2
53666;SDS011;39568;51.026;5.468;2022-07-10T00:00:53;4.97;;;1.88;;
53666;SDS011;39568;51.026;5.468;2022-07-10T00:03:22;6.43;;;1.90;;
53666;SDS011;39568;51.026;5.468;2022-07-10T00:05:48;7.25;;;2.35;;
53666;SDS011;39568;51.026;5.468;2022-07-10T00:08:22;9.00;;;2.10;;
53666;SDS011;39568;51.026;5.468;2022-07-10T00:10:49;3.45;;;3.17;;
53666;SDS011;39568;51.026;5.468;2022-07-10T00:13:17;3.75;;;1.98;;
53666;SDS011;39568;51.026;5.468;2022-07-10T00:15:46;8.95;;;2.83;;
53666;SDS011;39568;51.026;5.468;2022-07-10T00:18:12;7.47;;;1.80;;
53666;SDS011;39568;51.026;5.468;2022-07-10T00:20:39;6.00;;;2.03;;
53666;SDS011;39568;51.026;5.468;2022-07-10T00:23:06;7.50;;;2.22;;
53666;SDS011;39568;51.026;5.468;2022-07-10T00:25:34;5.13;;;2.20;;
53666;SDS011;39568;51.026;5.468;2022-07-10T00:28:03;6.88;;;2.08;;
53666;SDS011;39568;51.026;5.468;2022-07-10T00:30:31;3.42;;;1.92;;
53666;SDS011;39568;51.026;5.468;2022-07-10T00:32:59;7.18;;;2.45;;
53666;SDS011;39568;51.026;5.468;2022-07-10T00:35:25;6.65;;;2.00;;
53666;SDS011;39568;51.026;5.468;2022-07-10T00:37:52;6.45;;;3.03;;
53666;SDS011;39568;51.026;5.468;2022-07-10T00:40:19;9.07;;;2.20;;
53666;SDS011;39568;51.026;5.468;2022-07-10T00:42:46;5.22;;;2.60;;
53666;SDS011;39568;51.026;5.468;2022-07-10T00:45:12;2.92;;;2.17;;
53666;SDS011;39568;51.026;5.468;2022-07-10T00:47:43;6.22;;;2.80;;
53666;SDS011;39568;51.026;5.468;2022-07-10T00:50:10;2.40;;;2.30;;
53666;SDS011;39568;51.026;5.468;2022-07-10T00:52:38;6.35;;;2.10;;
53666;SDS011;39568;51.026;5.468;2022-07-10T00:55:06;2.85;;;2.22;;
53666;SDS011;39568;51.026;5.468;2022-07-10T00:57:35;9.90;;;2.75;;
53666;SDS011;39568;51.026;5.468;2022-07-10T01:00:03;5.85;;;2.75;;
53666;SDS011;39568;51.026;5.468;2022-07-10T01:02:30;9.05;;;2.75;;
53666;SDS011;39568;51.026;5.468;2022-07-10T01:04:59;13.63;;;2.47;;
53666;SDS011;39568;51.026;5.468;2022-07-10T01:07:26;10.00;;;1.80;;
53666;SDS011;39568;51.026;5.468;2022-07-10T01:09:53;11.70;;;2.33;;
53666;SDS011;39568;51.026;5.468;2022-07-10T01:12:24;13.40;;;2.58;;
53666;SDS011;39568;51.026;5.468;2022-07-10T01:14:52;2.83;;;2.10;;
53666;SDS011;39568;51.026;5.468;2022-07-10T01:17:20;6.90;;;2.28;;
53666;SDS011;39568;51.026;5.468;2022-07-10T01:19:48;12.05;;;3.78;;
53666;SDS011;39568;51.026;5.468;2022-07-10T01:22:20;4.68;;;2.00;;
53666;SDS011;39568;51.026;5.468;2022-07-10T01:24:46;4.57;;;2.40;;
53666;SDS011;39568;51.026;5.468;2022-07-10T01:27:13;5.28;;;2.45;;
53666;SDS011;39568;51.026;5.468;2022-07-10T01:29:40;5.13;;;2.25;;
53666;SDS011;39568;51.026;5.468;2022-07-10T01:32:06;10.55;;;2.50;;
53666;SDS011;39568;51.026;5.468;2022-07-10T01:34:33;6.85;;;3.10;;
53666;SDS011;39568;51.026;5.468;2022-07-10T01:37:00;10.23;;;2.88;;
53666;SDS011;39568;51.026;5.468;2022-07-10T01:39:29;7.55;;;3.03;;
53666;SDS011;39568;51.026;5.468;2022-07-10T01:41:57;8.00;;;2.55;;
53666;SDS011;39568;51.026;5.468;2022-07-10T01:44:24;3.47;;;1.95;;
53666;SDS011;39568;51.026;5.468;2022-07-10T01:46:50;6.95;;;2.22;;
53666;SDS011;39568;51.026;5.468;2022-07-10T01:49:17;6.07;;;2.00;;
53666;SDS011;39568;51.026;5.468;2022-07-10T01:51:44;7.55;;;2.83;;
53666;SDS011;39568;51.026;5.468;2022-07-10T01:54:10;8.88;;;2.55;;
53666;SDS011;39568;51.026;5.468;2022-07-10T01:56:39;10.20;;;2.20;;
53666;SDS011;39568;51.026;5.468;2022-07-10T01:59:11;7.35;;;2.42;;
53666;SDS011;39568;51.026;5.468;2022-07-10T02:01:37;7.93;;;2.53;;
53666;SDS011;39568;51.026;5.468;2022-07-10T02:04:07;6.38;;;2.63;;
53666;SDS011;39568;51.026;5.468;2022-07-10T02:06:52;3.97;;;3.35;;
53666;SDS011;39568;51.026;5.468;2022-07-10T02:09:18;8.02;;;3.47;;
53666;SDS011;39568;51.026;5.468;2022-07-10T02:11:47;3.75;;;2.78;;
53666;SDS011;39568;51.026;5.468;2022-07-10T02:14:14;4.10;;;2.60;;
53666;SDS011;39568;51.026;5.468;2022-07-10T02:16:44;5.10;;;2.72;;
53666;SDS011;39568;51.026;5.468;2022-07-10T02:19:11;12.63;;;2.85;;
53666;SDS011;39568;51.026;5.468;2022-07-10T02:21:38;6.28;;;2.53;;
53666;SDS011;39568;51.026;5.468;2022-07-10T02:24:04;9.50;;;2.67;;
53666;SDS011;39568;51.026;5.468;2022-07-10T02:26:31;11.80;;;3.25;;
53666;SDS011;39568;51.026;5.468;2022-07-10T02:29:00;6.80;;;2.40;;
53666;SDS011;39568;51.026;5.468;2022-07-10T02:31:34;7.53;;;2.25;;
53666;SDS011;39568;51.026;5.468;2022-07-10T02:34:05;3.28;;;2.42;;
53666;SDS011;39568;51.026;5.468;2022-07-10T02:36:32;8.57;;;2.42;;
53666;SDS011;39568;51.026;5.468;2022-07-10T02:38:59;4.28;;;2.35;;
53666;SDS011;39568;51.026;5.468;2022-07-10T02:41:25;6.95;;;2.22;;
53666;SDS011;39568;51.026;5.468;2022-07-10T02:43:52;4.10;;;2.22;;
53666;SDS011;39568;51.026;5.468;2022-07-10T02:46:21;11.52;;;2.80;;
53666;SDS011;39568;51.026;5.468;2022-07-10T02:48:48;4.18;;;2.10;;
53666;SDS011;39568;51.026;5.468;2022-07-10T02:51:23;7.38;;;2.60;;
53666;SDS011;39568;51.026;5.468;2022-07-10T02:53:57;3.72;;;2.05;;
53666;SDS011;39568;51.026;5.468;2022-07-10T02:56:27;7.00;;;2.47;;
53666;SDS011;39568;51.026;5.468;2022-07-10T02:58:54;6.80;;;2.60;;
53666;SDS011;39568;51.026;5.468;2022-07-10T03:01:25;1.95;;;1.75;;
53666;SDS011;39568;51.026;5.468;2022-07-10T03:03:52;13.98;;;2.88;;
53666;SDS011;39568;51.026;5.468;2022-07-10T03:06:18;16.90;;;3.08;;
53666;SDS011;39568;51.026;5.468;2022-07-10T03:08:49;5.90;;;2.67;;
53666;SDS011;39568;51.026;5.468;2022-07-10T03:11:16;10.95;;;2.72;;
53666;SDS011;39568;51.026;5.468;2022-07-10T03:13:42;3.53;;;3.22;;
53666;SDS011;39568;51.026;5.468;2022-07-10T03:16:09;11.82;;;3.47;;
53666;SDS011;39568;51.026;5.468;2022-07-10T03:18:37;15.98;;;3.78;;
53666;SDS011;39568;51.026;5.468;2022-07-10T03:21:04;8.57;;;3.05;;
53666;SDS011;39568;51.026;5.468;2022-07-10T03:23:30;6.57;;;3.90;;
53666;SDS011;39568;51.026;5.468;2022-07-10T03:25:57;6.97;;;3.53;;
53666;SDS011;39568;51.026;5.468;2022-07-10T03:28:27;15.57;;;3.40;;
53666;SDS011;39568;51.026;5.468;2022-07-10T03:30:53;9.07;;;3.53;;
53666;SDS011;39568;51.026;5.468;2022-07-10T03:33:20;8.63;;;2.42;;
53666;SDS011;39568;51.026;5.468;2022-07-10T03:35:52;4.63;;;2.08;;
53666;SDS011;39568;51.026;5.468;2022-07-10T03:38:19;6.60;;;2.58;;
53666;SDS011;39568;51.026;5.468;2022-07-10T03:40:45;10.38;;;2.78;;
53666;SDS011;39568;51.026;5.468;2022-07-10T03:43:13;6.53;;;2.72;;
53666;SDS011;39568;51.026;5.468;2022-07-10T03:45:40;6.72;;;3.05;;
53666;SDS011;39568;51.026;5.468;2022-07-10T03:48:08;4.32;;;2.88;;
53666;SDS011;39568;51.026;5.468;2022-07-10T03:50:35;4.35;;;2.78;;
53666;SDS011;39568;51.026;5.468;2022-07-10T03:53:03;18.27;;;6.18;;
53666;SDS011;39568;51.026;5.468;2022-07-10T03:55:30;5.75;;;3.33;;
53666;SDS011;39568;51.026;5.468;2022-07-10T03:57:56;6.55;;;2.72;;
53666;SDS011;39568;51.026;5.468;2022-07-10T04:00:23;10.88;;;3.67;;
53666;SDS011;39568;51.026;5.468;2022-07-10T04:02:55;15.75;;;2.92;;
53666;SDS011;39568;51.026;5.468;2022-07-10T04:05:24;5.47;;;2.88;;
53666;SDS011;39568;51.026;5.468;2022-07-10T04:07:50;12.85;;;3.80;;
53666;SDS011;39568;51.026;5.468;2022-07-10T04:10:19;8.65;;;3.05;;
53666;SDS011;39568;51.026;5.468;2022-07-10T04:12:53;11.35;;;3.47;;
53666;SDS011;39568;51.026;5.468;2022-07-10T04:15:20;8.40;;;2.92;;
53666;SDS011;39568;51.026;5.468;2022-07-10T04:17:52;8.57;;;3.35;;
53666;SDS011;39568;51.026;5.468;2022-07-10T04:20:19;5.32;;;2.75;;
53666;SDS011;39568;51.026;5.468;2022-07-10T04:22:46;8.43;;;2.85;;
53666;SDS011;39568;51.026;5.468;2022-07-10T04:25:16;4.72;;;2.72;;
53666;SDS011;39568;51.026;5.468;2022-07-10T04:27:51;4.82;;;2.55;;
53666;SDS011;39568;51.026;5.468;2022-07-10T04:30:17;16.65;;;2.92;;
53666;SDS011;39568;51.026;5.468;2022-07-10T04:32:44;8.05;;;3.38;;
53666;SDS011;39568;51.026;5.468;2022-07-10T04:35:11;10.65;;;2.88;;
53666;SDS011;39568;51.026;5.468;2022-07-10T04:37:38;9.98;;;4.28;;
53666;SDS011;39568;51.026;5.468;2022-07-10T04:40:05;9.13;;;3.80;;
53666;SDS011;39568;51.026;5.468;2022-07-10T04:42:36;3.22;;;2.30;;
53666;SDS011;39568;51.026;5.468;2022-07-10T04:45:03;4.20;;;2.58;;
53666;SDS011;39568;51.026;5.468;2022-07-10T04:47:34;7.50;;;3.30;;
53666;SDS011;39568;51.026;5.468;2022-07-10T04:50:01;13.38;;;2.67;;
53666;SDS011;39568;51.026;5.468;2022-07-10T04:52:27;5.53;;;2.03;;
53666;SDS011;39568;51.026;5.468;2022-07-10T04:54:54;9.65;;;2.60;;
53666;SDS011;39568;51.026;5.468;2022-07-10T04:57:20;9.32;;;2.65;;
53666;SDS011;39568;51.026;5.468;2022-07-10T04:59:50;6.35;;;2.17;;
53666;SDS011;39568;51.026;5.468;2022-07-10T05:02:17;6.65;;;2.33;;
53666;SDS011;39568;51.026;5.468;2022-07-10T05:04:44;5.68;;;2.40;;
53666;SDS011;39568;51.026;5.468;2022-07-10T05:07:13;14.52;;;2.45;;
53666;SDS011;39568;51.026;5.468;2022-07-10T05:09:46;8.45;;;2.22;;
53666;SDS011;39568;51.026;5.468;2022-07-10T05:12:15;7.35;;;1.70;;
53666;SDS011;39568;51.026;5.468;2022-07-10T05:14:43;7.90;;;1.92;;
53666;SDS011;39568;51.026;5.468;2022-07-10T05:17:13;6.63;;;2.17;;
53666;SDS011;39568;51.026;5.468;2022-07-10T05:19:39;5.65;;;1.95;;
53666;SDS011;39568;51.026;5.468;2022-07-10T05:22:06;8.40;;;2.95;;
53666;SDS011;39568;51.026;5.468;2022-07-10T05:24:34;4.57;;;1.73;;
53666;SDS011;39568;51.026;5.468;2022-07-10T05:27:01;3.83;;;2.25;;
53666;SDS011;39568;51.026;5.468;2022-07-10T05:29:29;7.85;;;2.03;;
53666;SDS011;39568;51.026;5.468;2022-07-10T05:31:56;8.43;;;1.75;;
53666;SDS011;39568;51.026;5.468;2022-07-10T05:34:25;5.97;;;1.58;;
53666;SDS011;39568;51.026;5.468;2022-07-10T05:36:52;10.27;;;1.63;;
53666;SDS011;39568;51.026;5.468;2022-07-10T05:39:19;3.17;;;1.88;;
53666;SDS011;39568;51.026;5.468;2022-07-10T05:41:51;4.65;;;1.20;;
53666;SDS011;39568;51.026;5.468;2022-07-10T05:44:22;5.60;;;1.50;;
53666;SDS011;39568;51.026;5.468;2022-07-10T05:46:55;10.43;;;2.22;;
53666;SDS011;39568;51.026;5.468;2022-07-10T05:49:21;6.28;;;1.75;;
53666;SDS011;39568;51.026;5.468;2022-07-10T05:51:52;1.67;;;1.38;;
53666;SDS011;39568;51.026;5.468;2022-07-10T05:54:23;6.00;;;1.73;;
53666;SDS011;39568;51.026;5.468;2022-07-10T05:56:50;8.32;;;2.67;;
53666;SDS011;39568;51.026;5.468;2022-07-10T05:59:17;2.90;;;2.00;;
53666;SDS011;39568;51.026;5.468;2022-07-10T06:01:48;4.33;;;2.53;;
53666;SDS011;39568;51.026;5.468;2022-07-10T06:04:15;10.18;;;2.15;;
53666;SDS011;39568;51.026;5.468;2022-07-10T06:06:41;5.30;;;2.10;;
53666;SDS011;39568;51.026;5.468;2022-07-10T06:09:11;12.13;;;2.15;;
53666;SDS011;39568;51.026;5.468;2022-07-10T06:11:44;12.05;;;2.28;;
53666;SDS011;39568;51.026;5.468;2022-07-10T06:14:13;10.98;;;1.65;;
53666;SDS011;39568;51.026;5.468;2022-07-10T06:16:40;6.90;;;1.40;;
53666;SDS011;39568;51.026;5.468;2022-07-10T06:19:09;7.13;;;1.20;;
53666;SDS011;39568;51.026;5.468;2022-07-10T06:21:40;2.03;;;0.93;;
53666;SDS011;39568;51.026;5.468;2022-07-10T06:24:07;7.97;;;1.48;;
53666;SDS011;39568;51.026;5.468;2022-07-10T06:26:35;3.90;;;1.27;;
53666;SDS011;39568;51.026;5.468;2022-07-10T06:29:02;6.95;;;1.05;;
53666;SDS011;39568;51.026;5.468;2022-07-10T06:31:29;10.30;;;1.08;;
53666;SDS011;39568;51.026;5.468;2022-07-10T06:33:57;6.07;;;1.23;;
53666;SDS011;39568;51.026;5.468;2022-07-10T06:36:23;7.35;;;1.60;;
53666;SDS011;39568;51.026;5.468;2022-07-10T06:38:50;1.75;;;1.40;;
53666;SDS011;39568;51.026;5.468;2022-07-10T06:41:23;4.93;;;1.10;;
53666;SDS011;39568;51.026;5.468;2022-07-10T06:43:51;5.50;;;1.98;;
53666;SDS011;39568;51.026;5.468;2022-07-10T06:46:18;9.23;;;1.50;;
53666;SDS011;39568;51.026;5.468;2022-07-10T06:48:45;3.75;;;2.10;;
53666;SDS011;39568;51.026;5.468;2022-07-10T06:51:10;4.07;;;1.70;;
53666;SDS011;39568;51.026;5.468;2022-07-10T06:53:37;9.80;;;2.25;;
53666;SDS011;39568;51.026;5.468;2022-07-10T06:56:04;4.70;;;1.00;;
53666;SDS011;39568;51.026;5.468;2022-07-10T06:58:34;4.72;;;1.17;;
53666;SDS011;39568;51.026;5.468;2022-07-10T07:01:02;6.30;;;1.77;;
53666;SDS011;39568;51.026;5.468;2022-07-10T07:03:30;8.88;;;3.03;;
53666;SDS011;39568;51.026;5.468;2022-07-10T07:06:00;5.57;;;1.40;;
53666;SDS011;39568;51.026;5.468;2022-07-10T07:08:36;6.93;;;1.67;;
53666;SDS011;39568;51.026;5.468;2022-07-10T07:11:03;4.60;;;1.48;;
53666;SDS011;39568;51.026;5.468;2022-07-10T07:13:29;2.50;;;1.70;;
53666;SDS011;39568;51.026;5.468;2022-07-10T07:15:56;1.95;;;0.90;;
53666;SDS011;39568;51.026;5.468;2022-07-10T07:18:27;2.45;;;0.80;;
53666;SDS011;39568;51.026;5.468;2022-07-10T07:20:58;5.13;;;1.48;;
53666;SDS011;39568;51.026;5.468;2022-07-10T07:23:42;2.25;;;0.88;;
53666;SDS011;39568;51.026;5.468;2022-07-10T07:26:09;7.57;;;1.55;;
53666;SDS011;39568;51.026;5.468;2022-07-10T07:28:35;9.65;;;1.58;;
53666;SDS011;39568;51.026;5.468;2022-07-10T07:31:02;4.22;;;1.02;;
53666;SDS011;39568;51.026;5.468;2022-07-10T07:33:34;8.52;;;1.40;;
53666;SDS011;39568;51.026;5.468;2022-07-10T07:36:04;10.80;;;1.27;;
53666;SDS011;39568;51.026;5.468;2022-07-10T07:38:31;2.97;;;1.00;;
53666;SDS011;39568;51.026;5.468;2022-07-10T07:40:57;5.47;;;1.08;;
53666;SDS011;39568;51.026;5.468;2022-07-10T07:43:24;9.65;;;1.50;;
53666;SDS011;39568;51.026;5.468;2022-07-10T07:45:51;9.80;;;1.00;;
53666;SDS011;39568;51.026;5.468;2022-07-10T07:48:17;9.85;;;2.03;;
53666;SDS011;39568;51.026;5.468;2022-07-10T07:50:45;7.80;;;1.88;;
53666;SDS011;39568;51.026;5.468;2022-07-10T07:53:12;5.78;;;1.30;;
53666;SDS011;39568;51.026;5.468;2022-07-10T07:55:39;13.30;;;2.28;;
53666;SDS011;39568;51.026;5.468;2022-07-10T07:58:06;8.45;;;1.33;;
53666;SDS011;39568;51.026;5.468;2022-07-10T08:00:32;1.52;;;0.63;;
53666;SDS011;39568;51.026;5.468;2022-07-10T08:02:59;1.95;;;1.20;;
53666;SDS011;39568;51.026;5.468;2022-07-10T08:05:26;7.88;;;1.50;;
53666;SDS011;39568;51.026;5.468;2022-07-10T08:07:58;8.00;;;1.15;;
53666;SDS011;39568;51.026;5.468;2022-07-10T08:10:33;1.55;;;0.65;;
53666;SDS011;39568;51.026;5.468;2022-07-10T08:13:04;4.88;;;1.00;;
53666;SDS011;39568;51.026;5.468;2022-07-10T08:15:30;3.70;;;1.25;;
53666;SDS011;39568;51.026;5.468;2022-07-10T08:17:59;4.25;;;0.98;;
53666;SDS011;39568;51.026;5.468;2022-07-10T08:20:29;4.25;;;1.10;;
53666;SDS011;39568;51.026;5.468;2022-07-10T08:22:58;8.48;;;1.23;;
53666;SDS011;39568;51.026;5.468;2022-07-10T08:25:26;3.65;;;1.08;;
53666;SDS011;39568;51.026;5.468;2022-07-10T08:28:01;4.88;;;1.17;;
53666;SDS011;39568;51.026;5.468;2022-07-10T08:30:30;10.63;;;1.00;;
53666;SDS011;39568;51.026;5.468;2022-07-10T08:32:57;3.08;;;1.02;;
53666;SDS011;39568;51.026;5.468;2022-07-10T08:35:24;3.13;;;0.70;;
53666;SDS011;39568;51.026;5.468;2022-07-10T08:37:55;5.05;;;1.90;;
53666;SDS011;39568;51.026;5.468;2022-07-10T08:40:30;6.30;;;1.30;;
53666;SDS011;39568;51.026;5.468;2022-07-10T08:43:01;4.65;;;1.00;;
53666;SDS011;39568;51.026;5.468;2022-07-10T08:45:29;1.02;;;0.75;;
53666;SDS011;39568;51.026;5.468;2022-07-10T08:47:58;4.32;;;1.67;;
53666;SDS011;39568;51.026;5.468;2022-07-10T08:50:28;9.32;;;1.05;;
53666;SDS011;39568;51.026;5.468;2022-07-10T08:52:58;1.08;;;0.98;;
53666;SDS011;39568;51.026;5.468;2022-07-10T08:55:30;9.55;;;1.45;;
53666;SDS011;39568;51.026;5.468;2022-07-10T08:57:57;2.75;;;0.77;;
53666;SDS011;39568;51.026;5.468;2022-07-10T09:00:26;8.50;;;0.80;;
53666;SDS011;39568;51.026;5.468;2022-07-10T09:02:57;4.70;;;1.08;;
53666;SDS011;39568;51.026;5.468;2022-07-10T09:05:23;4.03;;;1.13;;
53666;SDS011;39568;51.026;5.468;2022-07-10T09:07:50;6.72;;;1.50;;
53666;SDS011;39568;51.026;5.468;2022-07-10T09:10:19;8.23;;;1.13;;
53666;SDS011;39568;51.026;5.468;2022-07-10T09:12:52;6.13;;;1.30;;
53666;SDS011;39568;51.026;5.468;2022-07-10T09:15:20;2.00;;;0.70;;
53666;SDS011;39568;51.026;5.468;2022-07-10T09:17:55;6.32;;;1.15;;
53666;SDS011;39568;51.026;5.468;2022-07-10T09:20:32;1.88;;;1.40;;
53666;SDS011;39568;51.026;5.468;2022-07-10T09:23:00;4.93;;;1.20;;
53666;SDS011;39568;51.026;5.468;2022-07-10T09:25:41;3.10;;;0.90;;
53666;SDS011;39568;51.026;5.468;2022-07-10T09:28:09;2.78;;;1.23;;
53666;SDS011;39568;51.026;5.468;2022-07-10T09:30:36;3.97;;;1.00;;
53666;SDS011;39568;51.026;5.468;2022-07-10T09:33:20;3.17;;;1.08;;
53666;SDS011;39568;51.026;5.468;2022-07-10T09:35:56;2.40;;;0.70;;
53666;SDS011;39568;51.026;5.468;2022-07-10T09:38:49;13.82;;;1.20;;
53666;SDS011;39568;51.026;5.468;2022-07-10T09:41:23;4.75;;;0.90;;
53666;SDS011;39568;51.026;5.468;2022-07-10T09:43:53;3.97;;;1.00;;
53666;SDS011;39568;51.026;5.468;2022-07-10T09:46:22;6.07;;;1.30;;
53666;SDS011;39568;51.026;5.468;2022-07-10T09:51:33;7.45;;;1.15;;
53666;SDS011;39568;51.026;5.468;2022-07-10T09:54:02;5.30;;;1.80;;
53666;SDS011;39568;51.026;5.468;2022-07-10T09:56:33;7.67;;;1.23;;
53666;SDS011;39568;51.026;5.468;2022-07-10T09:59:11;6.97;;;1.35;;
53666;SDS011;39568;51.026;5.468;2022-07-10T10:01:42;3.97;;;0.80;;
53666;SDS011;39568;51.026;5.468;2022-07-10T10:04:11;6.90;;;1.15;;
53666;SDS011;39568;51.026;5.468;2022-07-10T10:06:40;6.60;;;1.30;;
53666;SDS011;39568;51.026;5.468;2022-07-10T10:09:08;1.10;;;0.98;;
53666;SDS011;39568;51.026;5.468;2022-07-10T10:11:40;13.32;;;1.40;;
53666;SDS011;39568;51.026;5.468;2022-07-10T10:14:13;4.53;;;1.45;;
53666;SDS011;39568;51.026;5.468;2022-07-10T10:16:43;10.47;;;1.20;;
53666;SDS011;39568;51.026;5.468;2022-07-10T10:19:10;9.38;;;1.63;;
53666;SDS011;39568;51.026;5.468;2022-07-10T10:21:56;4.20;;;1.45;;
53666;SDS011;39568;51.026;5.468;2022-07-10T10:24:26;5.88;;;0.98;;
53666;SDS011;39568;51.026;5.468;2022-07-10T10:26:58;5.43;;;1.50;;
53666;SDS011;39568;51.026;5.468;2022-07-10T10:29:29;8.13;;;1.70;;
53666;SDS011;39568;51.026;5.468;2022-07-10T10:31:58;8.20;;;1.45;;
53666;SDS011;39568;51.026;5.468;2022-07-10T10:34:37;3.28;;;1.30;;
53666;SDS011;39568;51.026;5.468;2022-07-10T10:37:06;4.13;;;1.23;;
53666;SDS011;39568;51.026;5.468;2022-07-10T10:40:01;5.78;;;1.25;;
53666;SDS011;39568;51.026;5.468;2022-07-10T10:42:31;3.85;;;1.00;;
53666;SDS011;39568;51.026;5.468;2022-07-10T10:45:23;5.55;;;0.95;;
53666;SDS011;39568;51.026;5.468;2022-07-10T10:48:00;7.88;;;1.05;;
53666;SDS011;39568;51.026;5.468;2022-07-10T10:50:38;10.00;;;1.52;;
53666;SDS011;39568;51.026;5.468;2022-07-10T10:53:12;4.78;;;1.30;;
53666;SDS011;39568;51.026;5.468;2022-07-10T10:55:42;10.50;;;1.55;;
53666;SDS011;39568;51.026;5.468;2022-07-10T10:58:47;4.90;;;1.77;;
53666;SDS011;39568;51.026;5.468;2022-07-10T11:01:24;3.38;;;1.40;;
53666;SDS011;39568;51.026;5.468;2022-07-10T11:06:42;2.58;;;1.25;;
53666;SDS011;39568;51.026;5.468;2022-07-10T11:12:03;4.28;;;1.25;;
53666;SDS011;39568;51.026;5.468;2022-07-10T11:14:34;4.38;;;1.50;;
53666;SDS011;39568;51.026;5.468;2022-07-10T11:17:03;9.85;;;1.45;;
53666;SDS011;39568;51.026;5.468;2022-07-10T11:19:31;6.70;;;1.02;;
53666;SDS011;39568;51.026;5.468;2022-07-10T11:22:27;3.60;;;1.38;;
53666;SDS011;39568;51.026;5.468;2022-07-10T11:25:29;3.03;;;1.08;;
53666;SDS011;39568;51.026;5.468;2022-07-10T11:28:07;3.50;;;1.33;;
53666;SDS011;39568;51.026;5.468;2022-07-10T11:30:43;2.58;;;1.10;;
53666;SDS011;39568;51.026;5.468;2022-07-10T11:33:16;2.92;;;1.20;;
53666;SDS011;39568;51.026;5.468;2022-07-10T11:35:45;5.70;;;1.70;;
53666;SDS011;39568;51.026;5.468;2022-07-10T11:38:18;2.05;;;1.40;;
53666;SDS011;39568;51.026;5.468;2022-07-10T11:40:45;3.35;;;1.58;;
53666;SDS011;39568;51.026;5.468;2022-07-10T11:43:12;9.25;;;1.77;;
53666;SDS011;39568;51.026;5.468;2022-07-10T11:45:42;5.78;;;1.50;;
53666;SDS011;39568;51.026;5.468;2022-07-10T11:48:19;4.03;;;1.40;;
53666;SDS011;39568;51.026;5.468;2022-07-10T11:50:48;5.25;;;1.63;;
53666;SDS011;39568;51.026;5.468;2022-07-10T11:53:21;4.32;;;1.45;;
53666;SDS011;39568;51.026;5.468;2022-07-10T11:55:50;10.10;;;1.52;;
53666;SDS011;39568;51.026;5.468;2022-07-10T11:58:18;3.15;;;1.52;;
53666;SDS011;39568;51.026;5.468;2022-07-10T12:00:56;5.40;;;1.70;;
53666;SDS011;39568;51.026;5.468;2022-07-10T12:03:26;6.95;;;1.48;;
53666;SDS011;39568;51.026;5.468;2022-07-10T12:05:52;6.72;;;1.48;;
53666;SDS011;39568;51.026;5.468;2022-07-10T12:08:19;7.25;;;1.98;;
53666;SDS011;39568;51.026;5.468;2022-07-10T12:10:49;2.65;;;1.35;;
53666;SDS011;39568;51.026;5.468;2022-07-10T12:13:15;2.55;;;1.58;;
53666;SDS011;39568;51.026;5.468;2022-07-10T12:15:42;1.98;;;0.77;;
53666;SDS011;39568;51.026;5.468;2022-07-10T12:18:14;3.97;;;1.40;;
53666;SDS011;39568;51.026;5.468;2022-07-10T12:20:44;3.03;;;1.40;;
53666;SDS011;39568;51.026;5.468;2022-07-10T12:23:12;2.75;;;1.40;;
53666;SDS011;39568;51.026;5.468;2022-07-10T12:25:41;4.93;;;1.38;;
53666;SDS011;39568;51.026;5.468;2022-07-10T12:28:09;5.35;;;1.77;;
53666;SDS011;39568;51.026;5.468;2022-07-10T12:30:37;2.13;;;1.73;;
53666;SDS011;39568;51.026;5.468;2022-07-10T12:33:09;3.58;;;1.45;;
53666;SDS011;39568;51.026;5.468;2022-07-10T12:38:29;4.63;;;1.58;;
53666;SDS011;39568;51.026;5.468;2022-07-10T12:41:06;2.53;;;1.38;;
53666;SDS011;39568;51.026;5.468;2022-07-10T12:43:41;2.85;;;1.40;;
53666;SDS011;39568;51.026;5.468;2022-07-10T12:46:13;1.58;;;1.15;;
53666;SDS011;39568;51.026;5.468;2022-07-10T12:49:00;3.63;;;1.80;;
53666;SDS011;39568;51.026;5.468;2022-07-10T12:51:29;5.10;;;1.33;;
53666;SDS011;39568;51.026;5.468;2022-07-10T12:53:57;4.63;;;1.35;;
53666;SDS011;39568;51.026;5.468;2022-07-10T12:56:31;4.20;;;1.50;;
53666;SDS011;39568;51.026;5.468;2022-07-10T12:59:04;2.88;;;1.17;;
53666;SDS011;39568;51.026;5.468;2022-07-10T13:01:40;2.38;;;1.85;;
53666;SDS011;39568;51.026;5.468;2022-07-10T13:04:10;3.35;;;1.52;;
53666;SDS011;39568;51.026;5.468;2022-07-10T13:06:39;4.28;;;0.98;;
53666;SDS011;39568;51.026;5.468;2022-07-10T13:09:19;1.48;;;1.00;;
53666;SDS011;39568;51.026;5.468;2022-07-10T13:11:54;1.50;;;1.08;;
53666;SDS011;39568;51.026;5.468;2022-07-10T13:14:21;0.70;;;0.57;;
53666;SDS011;39568;51.026;5.468;2022-07-10T13:16:48;2.47;;;0.80;;
53666;SDS011;39568;51.026;5.468;2022-07-10T13:19:14;6.85;;;1.65;;
53666;SDS011;39568;51.026;5.468;2022-07-10T13:21:42;2.85;;;1.25;;
53666;SDS011;39568;51.026;5.468;2022-07-10T13:24:15;1.15;;;0.80;;
53666;SDS011;39568;51.026;5.468;2022-07-10T13:26:42;4.22;;;0.90;;
53666;SDS011;39568;51.026;5.468;2022-07-10T13:29:08;5.70;;;1.50;;
53666;SDS011;39568;51.026;5.468;2022-07-10T13:31:35;3.42;;;1.25;;
53666;SDS011;39568;51.026;5.468;2022-07-10T13:34:02;1.33;;;0.88;;
53666;SDS011;39568;51.026;5.468;2022-07-10T13:36:29;2.10;;;0.90;;
53666;SDS011;39568;51.026;5.468;2022-07-10T13:38:57;1.55;;;0.90;;
53666;SDS011;39568;51.026;5.468;2022-07-10T13:41:24;5.78;;;0.98;;
53666;SDS011;39568;51.026;5.468;2022-07-10T13:43:51;6.78;;;1.30;;
53666;SDS011;39568;51.026;5.468;2022-07-10T13:46:26;9.50;;;0.63;;
53666;SDS011;39568;51.026;5.468;2022-07-10T13:48:53;4.25;;;1.23;;
53666;SDS011;39568;51.026;5.468;2022-07-10T13:51:19;2.70;;;1.50;;
53666;SDS011;39568;51.026;5.468;2022-07-10T13:53:46;6.25;;;1.20;;
53666;SDS011;39568;51.026;5.468;2022-07-10T13:56:14;3.40;;;0.80;;
53666;SDS011;39568;51.026;5.468;2022-07-10T13:58:42;5.88;;;0.82;;
53666;SDS011;39568;51.026;5.468;2022-07-10T14:01:12;5.47;;;1.35;;
53666;SDS011;39568;51.026;5.468;2022-07-10T14:03:39;5.88;;;1.00;;
53666;SDS011;39568;51.026;5.468;2022-07-10T14:06:06;2.25;;;1.15;;
53666;SDS011;39568;51.026;5.468;2022-07-10T14:08:33;2.83;;;0.70;;
53666;SDS011;39568;51.026;5.468;2022-07-10T14:11:03;2.63;;;0.85;;
53666;SDS011;39568;51.026;5.468;2022-07-10T14:13:32;1.92;;;0.70;;
53666;SDS011;39568;51.026;5.468;2022-07-10T14:15:58;2.83;;;1.13;;
53666;SDS011;39568;51.026;5.468;2022-07-10T14:18:25;2.83;;;0.95;;
53666;SDS011;39568;51.026;5.468;2022-07-10T14:21:03;3.75;;;1.30;;
53666;SDS011;39568;51.026;5.468;2022-07-10T14:23:30;1.38;;;1.00;;
53666;SDS011;39568;51.026;5.468;2022-07-10T14:25:58;3.83;;;1.17;;
53666;SDS011;39568;51.026;5.468;2022-07-10T14:28:29;3.08;;;1.20;;
53666;SDS011;39568;51.026;5.468;2022-07-10T14:30:58;2.95;;;1.10;;
53666;SDS011;39568;51.026;5.468;2022-07-10T14:33:28;3.38;;;1.13;;
53666;SDS011;39568;51.026;5.468;2022-07-10T14:35:55;1.50;;;0.77;;
53666;SDS011;39568;51.026;5.468;2022-07-10T14:38:21;3.33;;;0.68;;
53666;SDS011;39568;51.026;5.468;2022-07-10T14:40:48;7.85;;;1.35;;
53666;SDS011;39568;51.026;5.468;2022-07-10T14:43:16;7.05;;;0.65;;
53666;SDS011;39568;51.026;5.468;2022-07-10T14:45:44;3.03;;;0.93;;
53666;SDS011;39568;51.026;5.468;2022-07-10T14:48:13;3.22;;;0.75;;
53666;SDS011;39568;51.026;5.468;2022-07-10T14:50:40;3.22;;;0.77;;
53666;SDS011;39568;51.026;5.468;2022-07-10T14:53:07;6.07;;;0.98;;
53666;SDS011;39568;51.026;5.468;2022-07-10T14:55:36;2.58;;;0.82;;
53666;SDS011;39568;51.026;5.468;2022-07-10T14:58:03;8.70;;;1.30;;
53666;SDS011;39568;51.026;5.468;2022-07-10T15:00:32;3.55;;;0.95;;
53666;SDS011;39568;51.026;5.468;2022-07-10T15:02:59;7.57;;;1.02;;
53666;SDS011;39568;51.026;5.468;2022-07-10T15:05:27;2.97;;;1.17;;
53666;SDS011;39568;51.026;5.468;2022-07-10T15:07:54;1.55;;;0.90;;
53666;SDS011;39568;51.026;5.468;2022-07-10T15:10:21;2.35;;;0.80;;